createdAt,value
2022-08-16T00:01:15.192Z,20.40
2022-08-16T00:03:42.592Z,20.40
2022-08-16T00:06:10.182Z,20.40
2022-08-16T00:08:38.094Z,20.40
2022-08-16T00:11:07.480Z,20.40
2022-08-16T00:13:41.628Z,20.40
2022-08-16T00:17:05.423Z,20.30
2022-08-16T00:18:59.576Z,20.30
2022-08-16T00:21:28.937Z,20.30
2022-08-16T00:23:57.123Z,20.30
2022-08-16T00:26:36.556Z,20.30
2022-08-16T00:29:15.795Z,20.20
2022-08-16T00:31:59.842Z,20.20
2022-08-16T00:34:43.923Z,20.20
2022-08-16T00:37:17.075Z,20.20
2022-08-16T00:39:47.284Z,20.20
2022-08-16T00:42:29.586Z,20.20
2022-08-16T00:45:09.326Z,20.20
2022-08-16T00:47:40.225Z,20.20
2022-08-16T00:50:11.877Z,20.20
2022-08-16T00:52:45.866Z,20.20
2022-08-16T00:55:22.771Z,20.10
2022-08-16T00:57:58.628Z,20.10
2022-08-16T01:00:29.886Z,20.10
2022-08-16T01:02:59.676Z,20.10
2022-08-16T01:05:27.632Z,20.20
2022-08-16T01:07:57.442Z,20.20
2022-08-16T01:10:31.279Z,20.10
2022-08-16T01:13:04.642Z,20.10
2022-08-16T01:15:34.740Z,20.20
2022-08-16T01:18:04.419Z,20.20
2022-08-16T01:20:32.957Z,20.20
2022-08-16T01:23:11.634Z,20.20
2022-08-16T01:25:44.167Z,20.20
2022-08-16T01:28:20.067Z,20.20
2022-08-16T01:30:50.900Z,20.20
2022-08-16T01:33:19.489Z,20.20
2022-08-16T01:35:58.636Z,20.20
2022-08-16T01:38:32.098Z,20.20
2022-08-16T01:41:06.587Z,20.20
2022-08-16T01:43:35.188Z,20.20
2022-08-16T01:46:31.223Z,20.20
2022-08-16T01:49:01.583Z,20.20
2022-08-16T01:51:29.901Z,20.20
2022-08-16T01:53:58.670Z,20.20
2022-08-16T01:56:28.363Z,20.20
2022-08-16T01:58:58.892Z,20.20
2022-08-16T02:01:28.312Z,20.20
2022-08-16T02:03:58.716Z,20.20
2022-08-16T02:06:40.462Z,20.20
2022-08-16T02:09:17.932Z,20.20
2022-08-16T02:11:53.513Z,20.20
2022-08-16T02:14:27.430Z,20.10
2022-08-16T02:17:01.019Z,20.20
2022-08-16T02:19:59.758Z,20.10
2022-08-16T02:22:34.557Z,20.10
2022-08-16T02:25:06.083Z,20.10
2022-08-16T02:27:35.822Z,20.10
2022-08-16T02:30:05.999Z,20.10
2022-08-16T02:32:50.456Z,20.10
2022-08-16T02:35:23.716Z,20.10
2022-08-16T02:37:56.113Z,20.10
2022-08-16T02:40:26.027Z,20.00
2022-08-16T02:42:54.025Z,20.00
2022-08-16T02:45:27.680Z,20.00
2022-08-16T02:48:01.882Z,20.00
2022-08-16T02:50:55.375Z,20.00
2022-08-16T02:53:31.746Z,19.90
2022-08-16T02:55:59.336Z,19.90
2022-08-16T02:58:28.280Z,19.90
2022-08-16T03:00:57.684Z,19.90
2022-08-16T03:03:26.991Z,19.90
2022-08-16T03:06:42.194Z,19.90
2022-08-16T03:09:13.848Z,19.90
2022-08-16T03:11:47.567Z,19.90
2022-08-16T03:14:21.224Z,19.80
2022-08-16T03:16:59.270Z,19.80
2022-08-16T03:19:48.378Z,19.80
2022-08-16T03:22:28.415Z,19.70
2022-08-16T03:25:00.789Z,19.70
2022-08-16T03:27:32.616Z,19.70
2022-08-16T03:30:16.129Z,19.70
2022-08-16T03:32:47.153Z,19.60
2022-08-16T03:35:18.879Z,19.60
2022-08-16T03:38:01.879Z,19.60
2022-08-16T03:40:35.460Z,19.60
2022-08-16T03:43:19.690Z,19.50
2022-08-16T03:45:49.473Z,19.50
2022-08-16T03:48:36.809Z,19.50
2022-08-16T03:51:16.060Z,19.50
2022-08-16T03:53:57.544Z,19.40
2022-08-16T03:56:30.406Z,19.40
2022-08-16T03:58:59.099Z,19.30
2022-08-16T04:01:30.649Z,19.40
2022-08-16T04:04:00.548Z,19.30
2022-08-16T04:06:29.102Z,19.30
2022-08-16T04:08:56.645Z,19.30
2022-08-16T04:11:24.762Z,19.30
2022-08-16T04:14:01.060Z,19.20
2022-08-16T04:16:43.420Z,19.20
2022-08-16T04:19:34.858Z,19.20
2022-08-16T04:22:08.709Z,19.30
2022-08-16T04:24:55.299Z,19.20
2022-08-16T04:27:28.819Z,19.20
2022-08-16T04:30:02.767Z,19.20
2022-08-16T04:32:36.352Z,19.10
2022-08-16T04:35:13.756Z,19.10
2022-08-16T04:37:45.054Z,19.00
2022-08-16T04:40:25.121Z,19.00
2022-08-16T04:42:54.793Z,19.00
2022-08-16T04:45:35.993Z,19.00
2022-08-16T04:48:08.631Z,19.00
2022-08-16T04:50:49.279Z,19.00
2022-08-16T04:53:20.715Z,18.90
2022-08-16T04:55:53.256Z,18.90
2022-08-16T04:58:45.640Z,18.90
2022-08-16T05:01:11.263Z,18.90
2022-08-16T05:03:41.790Z,18.90
2022-08-16T05:06:42.129Z,18.90
2022-08-16T05:09:23.191Z,18.90
2022-08-16T05:11:52.407Z,18.80
2022-08-16T05:14:45.721Z,18.80
2022-08-16T05:17:13.577Z,18.80
2022-08-16T05:19:46.713Z,18.80
2022-08-16T05:22:28.326Z,18.90
2022-08-16T05:24:57.808Z,18.90
2022-08-16T05:27:25.551Z,18.90
2022-08-16T05:30:01.117Z,18.90
2022-08-16T05:32:36.447Z,18.90
2022-08-16T05:35:14.599Z,18.90
2022-08-16T05:38:33.241Z,18.90
2022-08-16T05:41:09.405Z,18.90
2022-08-16T05:43:43.594Z,18.90
2022-08-16T05:46:30.446Z,19.00
2022-08-16T05:49:08.766Z,19.00
2022-08-16T05:51:40.262Z,19.00
2022-08-16T05:54:11.482Z,19.00
2022-08-16T05:56:41.656Z,19.10
2022-08-16T05:59:11.018Z,19.10
2022-08-16T06:01:39.277Z,19.10
2022-08-16T06:04:12.996Z,19.20
2022-08-16T06:06:56.053Z,19.30
2022-08-16T06:09:42.549Z,19.30
2022-08-16T06:12:12.820Z,19.40
2022-08-16T06:14:58.774Z,19.50
2022-08-16T06:17:43.936Z,19.50
2022-08-16T06:20:25.483Z,19.50
2022-08-16T06:23:03.541Z,19.60
2022-08-16T06:25:44.693Z,19.70
2022-08-16T06:28:35.791Z,19.80
2022-08-16T06:31:06.356Z,19.90
2022-08-16T06:33:41.254Z,20.00
2022-08-16T06:36:11.634Z,20.10
2022-08-16T06:38:55.630Z,20.20
2022-08-16T06:41:44.408Z,20.20
2022-08-16T06:44:27.046Z,20.40
2022-08-16T06:46:58.899Z,20.50
2022-08-16T06:49:31.401Z,20.60
2022-08-16T06:52:02.629Z,20.70
2022-08-16T06:54:35.860Z,20.80
2022-08-16T06:57:03.219Z,20.80
2022-08-16T06:59:52.215Z,20.90
2022-08-16T07:02:32.775Z,21.00
2022-08-16T07:05:15.033Z,21.10
2022-08-16T07:07:50.950Z,21.20
2022-08-16T07:10:20.099Z,21.30
2022-08-16T07:13:03.984Z,21.40
2022-08-16T07:15:37.244Z,21.50
2022-08-16T07:18:20.255Z,21.60
2022-08-16T07:20:48.480Z,21.70
2022-08-16T07:23:16.998Z,21.80
2022-08-16T07:25:51.862Z,21.90
2022-08-16T07:28:24.280Z,21.90
2022-08-16T07:30:54.433Z,22.00
2022-08-16T07:33:51.864Z,22.20
2022-08-16T07:36:22.578Z,22.20
2022-08-16T07:38:52.360Z,22.30
2022-08-16T07:41:21.149Z,22.30
2022-08-16T07:43:54.096Z,22.40
2022-08-16T07:46:39.516Z,22.50
2022-08-16T07:49:19.808Z,22.50
2022-08-16T07:51:47.642Z,22.60
2022-08-16T07:54:21.174Z,22.70
2022-08-16T07:57:00.672Z,22.80
2022-08-16T07:59:42.953Z,22.90
2022-08-16T08:02:19.783Z,22.90
2022-08-16T08:04:51.972Z,23.10
2022-08-16T08:07:19.550Z,23.10
2022-08-16T08:09:50.119Z,23.20
2022-08-16T08:12:31.505Z,23.30
2022-08-16T08:15:04.173Z,23.40
2022-08-16T08:17:43.198Z,23.50
2022-08-16T08:20:26.154Z,23.60
2022-08-16T08:22:59.951Z,23.60
2022-08-16T08:25:52.710Z,23.70
2022-08-16T08:28:18.556Z,23.60
2022-08-16T08:30:51.359Z,23.70
2022-08-16T08:33:31.600Z,23.60
2022-08-16T08:36:00.811Z,23.70
2022-08-16T08:38:43.737Z,23.70
2022-08-16T08:41:18.554Z,23.70
2022-08-16T08:43:50.323Z,23.80
2022-08-16T08:46:21.407Z,23.80
2022-08-16T08:49:00.019Z,23.90
2022-08-16T08:51:36.674Z,23.90
2022-08-16T08:54:06.856Z,24.00
2022-08-16T08:56:37.440Z,24.00
2022-08-16T08:59:20.154Z,24.10
2022-08-16T09:01:57.223Z,24.20
2022-08-16T09:04:27.305Z,24.30
2022-08-16T09:06:55.823Z,24.40
2022-08-16T09:09:33.667Z,24.40
2022-08-16T09:12:06.172Z,24.40
2022-08-16T09:14:50.894Z,24.50
2022-08-16T09:17:51.676Z,24.70
2022-08-16T09:20:13.672Z,24.80
2022-08-16T09:22:41.788Z,24.80
2022-08-16T09:25:12.342Z,24.80
2022-08-16T09:27:56.607Z,24.90
2022-08-16T09:30:33.552Z,24.90
2022-08-16T09:33:02.758Z,25.10
2022-08-16T09:35:30.979Z,25.30
2022-08-16T09:38:00.650Z,25.30
2022-08-16T09:40:32.866Z,25.30
2022-08-16T09:43:37.803Z,25.20
2022-08-16T09:46:04.455Z,25.20
2022-08-16T09:48:52.988Z,25.30
2022-08-16T09:51:30.576Z,25.30
2022-08-16T09:54:04.779Z,25.30
2022-08-16T09:56:34.039Z,25.20
2022-08-16T09:59:05.868Z,25.20
2022-08-16T10:01:36.929Z,25.00
2022-08-16T10:04:29.267Z,25.00
2022-08-16T10:09:25.657Z,25.10
2022-08-16T10:12:31.537Z,25.20
2022-08-16T10:15:01.132Z,25.20
2022-08-16T10:17:29.555Z,25.20
2022-08-16T10:19:56.994Z,25.20
2022-08-16T10:22:24.412Z,25.10
2022-08-16T10:24:59.601Z,25.10
2022-08-16T10:27:45.688Z,25.00
2022-08-16T10:30:25.995Z,25.10
2022-08-16T10:32:57.317Z,25.10
2022-08-16T10:35:25.353Z,25.20
2022-08-16T10:38:00.562Z,25.20
2022-08-16T10:40:29.396Z,25.20
2022-08-16T10:43:00.060Z,25.20
2022-08-16T10:45:37.048Z,25.30
2022-08-16T10:48:27.144Z,25.40
2022-08-16T10:50:57.444Z,25.30
2022-08-16T10:53:32.951Z,25.40
2022-08-16T10:56:06.336Z,25.50
2022-08-16T10:59:29.357Z,25.60
2022-08-16T11:02:56.716Z,25.50
2022-08-16T11:12:56.531Z,25.90
2022-08-16T11:15:24.337Z,26.10
2022-08-16T11:18:48.714Z,26.30
2022-08-16T11:20:41.204Z,26.40
2022-08-16T11:23:12.310Z,26.40
2022-08-16T11:31:19.602Z,26.60
2022-08-16T11:33:54.967Z,26.80
2022-08-16T11:36:24.837Z,26.80
2022-08-16T11:38:58.043Z,26.90
2022-08-16T11:41:30.989Z,27.00
2022-08-16T11:44:00.169Z,27.10
2022-08-16T11:46:42.862Z,27.20
2022-08-16T11:49:13.657Z,27.30
2022-08-16T11:51:44.201Z,27.30
2022-08-16T11:54:20.961Z,27.40
2022-08-16T11:56:56.633Z,27.40
2022-08-16T11:59:28.870Z,27.40
2022-08-16T12:01:59.144Z,27.50
2022-08-16T12:04:27.808Z,27.50
2022-08-16T12:06:55.270Z,27.60
2022-08-16T12:09:24.091Z,27.60
2022-08-16T12:11:53.333Z,27.70
2022-08-16T12:14:22.913Z,27.50
2022-08-16T12:16:55.541Z,27.40
2022-08-16T12:19:33.672Z,27.30
2022-08-16T12:22:01.652Z,27.20
2022-08-16T12:24:34.146Z,27.30
2022-08-16T12:27:02.602Z,27.40
2022-08-16T12:29:30.502Z,27.60
2022-08-16T12:32:01.241Z,27.60
2022-08-16T12:34:50.509Z,27.60
2022-08-16T12:37:21.048Z,27.70
2022-08-16T12:39:51.434Z,27.80
2022-08-16T12:42:21.151Z,27.80
2022-08-16T12:45:03.474Z,27.80
2022-08-16T12:47:49.794Z,27.80
2022-08-16T12:50:19.068Z,28.00
2022-08-16T12:52:53.044Z,28.00
2022-08-16T12:55:22.150Z,27.90
2022-08-16T12:57:58.226Z,27.90
2022-08-16T13:00:33.131Z,27.80
2022-08-16T13:03:02.002Z,27.80
2022-08-16T13:07:58.674Z,27.50
2022-08-16T13:10:37.470Z,27.50
2022-08-16T13:13:08.910Z,27.60
2022-08-16T13:15:56.837Z,27.70
2022-08-16T13:18:33.648Z,27.70
2022-08-16T13:21:06.216Z,27.90
2022-08-16T13:23:35.873Z,28.00
2022-08-16T13:26:04.563Z,28.00
2022-08-16T13:28:32.619Z,28.10
2022-08-16T13:31:00.402Z,28.10
2022-08-16T13:33:37.051Z,28.10
2022-08-16T13:36:21.018Z,28.20
2022-08-16T13:38:56.218Z,28.30
2022-08-16T13:41:26.724Z,28.30
2022-08-16T13:44:04.232Z,28.40
2022-08-16T13:46:36.949Z,28.40
2022-08-16T13:49:05.086Z,28.50
2022-08-16T13:51:33.161Z,28.50
2022-08-16T13:54:04.576Z,28.50
2022-08-16T13:56:37.026Z,28.50
2022-08-16T13:59:19.971Z,28.50
2022-08-16T14:01:59.644Z,28.50
2022-08-16T14:04:32.199Z,28.40
2022-08-16T14:07:00.374Z,28.50
2022-08-16T14:09:28.509Z,28.60
2022-08-16T14:11:57.872Z,28.70
2022-08-16T14:14:29.085Z,28.60
2022-08-16T14:17:01.019Z,28.60
2022-08-16T14:19:29.472Z,28.60
2022-08-16T14:22:14.538Z,28.50
2022-08-16T14:24:47.250Z,28.40
2022-08-16T14:27:17.123Z,28.30
2022-08-16T14:29:45.682Z,28.40
2022-08-16T14:32:33.582Z,28.40
2022-08-16T14:35:11.649Z,28.50
2022-08-16T14:37:39.187Z,28.50
2022-08-16T14:40:11.925Z,28.60
2022-08-16T14:42:40.505Z,28.50
2022-08-16T14:45:13.880Z,28.60
2022-08-16T14:47:41.353Z,28.70
2022-08-16T14:50:12.840Z,28.70
2022-08-16T14:52:55.163Z,28.80
2022-08-16T14:55:25.848Z,28.80
2022-08-16T14:57:54.458Z,28.80
2022-08-16T15:00:33.146Z,28.80
2022-08-16T15:03:07.186Z,28.70
2022-08-16T15:05:38.255Z,28.70
2022-08-16T15:08:06.444Z,28.70
2022-08-16T15:10:37.394Z,28.70
2022-08-16T15:13:10.743Z,28.80
2022-08-16T15:15:40.019Z,28.90
2022-08-16T15:18:09.990Z,28.90
2022-08-16T15:20:39.741Z,29.00
2022-08-16T15:23:08.334Z,29.00
2022-08-16T15:25:47.308Z,28.90
2022-08-16T15:28:31.694Z,28.80
2022-08-16T15:31:03.213Z,28.90
2022-08-16T15:33:33.093Z,28.90
2022-08-16T15:36:00.595Z,28.90
2022-08-16T15:38:57.830Z,28.90
2022-08-16T15:41:53.954Z,29.00
2022-08-16T15:44:23.117Z,29.00
2022-08-16T15:46:59.990Z,29.00
2022-08-16T15:49:37.626Z,28.90
2022-08-16T15:52:16.431Z,28.90
2022-08-16T15:54:53.258Z,28.90
2022-08-16T15:57:26.962Z,28.90
2022-08-16T15:59:55.549Z,29.10
2022-08-16T16:02:30.551Z,29.10
2022-08-16T16:05:07.332Z,29.00
2022-08-16T16:07:37.522Z,29.00
2022-08-16T16:10:13.418Z,28.90
2022-08-16T16:12:51.527Z,29.00
2022-08-16T16:15:26.582Z,29.00
2022-08-16T16:17:57.063Z,28.90
2022-08-16T16:20:27.109Z,28.90
2022-08-16T16:23:02.380Z,28.80
2022-08-16T16:25:30.760Z,28.70
2022-08-16T16:28:00.449Z,28.60
2022-08-16T16:30:33.331Z,28.60
2022-08-16T16:33:05.752Z,28.60
2022-08-16T16:35:36.304Z,28.50
2022-08-16T16:38:08.135Z,28.50
2022-08-16T16:40:38.897Z,28.40
2022-08-16T16:43:15.091Z,28.30
2022-08-16T16:45:43.774Z,28.30
2022-08-16T16:48:12.306Z,28.20
2022-08-16T16:50:44.619Z,28.10
2022-08-16T16:53:17.218Z,28.00
2022-08-16T16:55:47.574Z,28.10
2022-08-16T16:58:40.517Z,28.00
2022-08-16T17:01:10.657Z,28.00
2022-08-16T17:03:38.564Z,28.10
2022-08-16T17:06:09.268Z,28.00
2022-08-16T17:08:40.627Z,28.00
2022-08-16T17:11:09.692Z,27.90
2022-08-16T17:13:37.225Z,28.00
2022-08-16T17:16:05.613Z,27.90
2022-08-16T17:19:21.783Z,27.80
2022-08-16T17:21:24.113Z,27.80
2022-08-16T17:23:58.052Z,27.70
2022-08-16T17:26:30.193Z,27.70
2022-08-16T17:29:02.462Z,27.60
2022-08-16T17:31:43.554Z,27.60
2022-08-16T17:34:31.020Z,27.50
2022-08-16T17:37:00.628Z,27.50
2022-08-16T17:39:35.401Z,27.40
2022-08-16T17:42:25.373Z,27.30
2022-08-16T17:44:54.562Z,27.20
2022-08-16T17:47:22.674Z,27.20
2022-08-16T17:49:49.985Z,27.20
2022-08-16T17:52:17.484Z,27.10
2022-08-16T17:54:45.007Z,27.00
2022-08-16T17:57:12.938Z,27.00
2022-08-16T17:59:41.484Z,26.90
2022-08-16T18:02:42.107Z,26.80
2022-08-16T18:04:57.108Z,26.80
2022-08-16T18:07:24.461Z,26.80
2022-08-16T18:09:52.558Z,26.70
2022-08-16T18:12:50.808Z,26.70
2022-08-16T18:15:14.607Z,26.60
2022-08-16T18:17:41.981Z,26.50
2022-08-16T18:20:28.626Z,26.50
2022-08-16T18:23:03.297Z,26.40
2022-08-16T18:25:30.651Z,26.30
2022-08-16T18:27:58.019Z,26.30
2022-08-16T18:30:25.581Z,26.20
2022-08-16T18:32:53.122Z,26.10
2022-08-16T18:35:20.847Z,26.10
2022-08-16T18:37:48.480Z,26.00
2022-08-16T18:40:16.127Z,25.90
2022-08-16T18:43:13.866Z,25.80
2022-08-16T18:45:42.849Z,25.80
2022-08-16T18:48:10.508Z,25.70
2022-08-16T18:51:04.948Z,25.70
2022-08-16T18:53:27.385Z,25.60
2022-08-16T18:55:57.117Z,25.50
2022-08-16T18:58:25.252Z,25.50
2022-08-16T19:00:56.287Z,25.40
2022-08-16T19:03:29.470Z,25.30
2022-08-16T19:05:59.783Z,25.20
2022-08-16T19:08:27.182Z,25.20
2022-08-16T19:10:54.660Z,25.10
2022-08-16T19:13:24.600Z,25.00
2022-08-16T19:15:54.765Z,25.00
2022-08-16T19:18:22.187Z,25.00
2022-08-16T19:20:49.647Z,24.90
2022-08-16T19:23:21.724Z,24.80
2022-08-16T19:25:53.099Z,24.80
2022-08-16T19:28:51.453Z,24.70
2022-08-16T19:31:23.313Z,24.70
2022-08-16T19:33:54.824Z,24.60
2022-08-16T19:36:35.779Z,24.50
2022-08-16T19:39:11.597Z,24.40
2022-08-16T19:41:41.127Z,24.40
2022-08-16T19:44:08.609Z,24.30
2022-08-16T19:46:37.873Z,24.30
2022-08-16T19:49:05.687Z,24.20
2022-08-16T19:51:33.041Z,24.20
2022-08-16T19:54:00.444Z,24.10
2022-08-16T19:56:27.811Z,24.10
2022-08-16T19:59:18.782Z,24.00
2022-08-16T20:01:43.574Z,24.00
2022-08-16T20:04:12.442Z,23.90
2022-08-16T20:06:41.492Z,23.90
2022-08-16T20:09:10.942Z,23.80
2022-08-16T20:11:45.945Z,23.80
2022-08-16T20:14:24.732Z,23.80
2022-08-16T20:16:57.674Z,23.80
2022-08-16T20:19:29.160Z,23.70
2022-08-16T20:22:02.113Z,23.70
2022-08-16T20:24:34.720Z,23.70
2022-08-16T20:27:07.558Z,23.70
2022-08-16T20:29:38.200Z,23.60
2022-08-16T20:32:06.442Z,23.60
2022-08-16T20:34:33.949Z,23.60
2022-08-16T20:37:01.371Z,23.60
2022-08-16T20:39:28.877Z,23.60
2022-08-16T20:41:56.288Z,23.50
2022-08-16T20:44:25.026Z,23.50
2022-08-16T20:46:53.028Z,23.50
2022-08-16T20:49:20.600Z,23.40
2022-08-16T20:51:50.585Z,23.40
2022-08-16T20:54:19.416Z,23.40
2022-08-16T20:56:46.867Z,23.40
2022-08-16T20:59:14.206Z,23.30
2022-08-16T21:01:46.713Z,23.30
2022-08-16T21:04:19.516Z,23.30
2022-08-16T21:06:53.167Z,23.20
2022-08-16T21:09:26.501Z,23.20
2022-08-16T21:11:55.394Z,23.10
2022-08-16T21:14:23.249Z,23.10
2022-08-16T21:16:50.734Z,23.10
2022-08-16T21:19:18.382Z,23.00
2022-08-16T21:21:45.856Z,23.00
2022-08-16T21:24:13.674Z,22.90
2022-08-16T21:26:41.075Z,22.90
2022-08-16T21:29:18.422Z,22.80
2022-08-16T21:31:45.716Z,22.80
2022-08-16T21:34:13.039Z,22.70
2022-08-16T21:36:40.678Z,22.70
2022-08-16T21:39:08.055Z,22.70
2022-08-16T21:41:35.606Z,22.60
2022-08-16T21:44:04.930Z,22.60
2022-08-16T21:46:33.883Z,22.60
2022-08-16T21:49:01.249Z,22.50
2022-08-16T21:51:28.596Z,22.50
2022-08-16T21:53:56.780Z,22.50
2022-08-16T21:56:24.156Z,22.50
2022-08-16T21:58:53.147Z,22.50
2022-08-16T22:01:24.569Z,22.40
2022-08-16T22:04:01.705Z,22.40
2022-08-16T22:06:40.131Z,22.30
2022-08-16T22:09:08.162Z,22.30
2022-08-16T22:11:35.914Z,22.20
2022-08-16T22:14:04.261Z,22.20
2022-08-16T22:16:36.322Z,22.20
2022-08-16T22:19:03.804Z,22.10
2022-08-16T22:21:31.487Z,22.10
2022-08-16T22:23:59.091Z,22.00
2022-08-16T22:26:31.854Z,22.00
2022-08-16T22:29:01.031Z,21.90
2022-08-16T22:31:28.512Z,21.90
2022-08-16T22:33:56.791Z,21.90
2022-08-16T22:36:28.345Z,21.90
2022-08-16T22:38:58.025Z,21.90
2022-08-16T22:41:28.682Z,21.90
2022-08-16T22:43:56.198Z,21.80
2022-08-16T22:46:23.770Z,21.80
2022-08-16T22:48:51.240Z,21.70
2022-08-16T22:51:23.876Z,21.70
2022-08-16T22:53:51.900Z,21.70
2022-08-16T22:56:20.392Z,21.60
2022-08-16T22:58:47.843Z,21.60
2022-08-16T23:01:16.085Z,21.50
2022-08-16T23:03:43.515Z,21.60
2022-08-16T23:06:11.901Z,21.50
2022-08-16T23:08:40.866Z,21.50
2022-08-16T23:11:10.389Z,21.40
2022-08-16T23:13:50.090Z,21.40
2022-08-16T23:16:23.129Z,21.30
2022-08-16T23:18:53.408Z,21.30
2022-08-16T23:21:20.940Z,21.30
2022-08-16T23:23:49.202Z,21.40
2022-08-16T23:26:47.204Z,21.30
2022-08-16T23:29:05.135Z,21.30
2022-08-16T23:31:32.749Z,21.30
2022-08-16T23:34:00.352Z,21.30
2022-08-16T23:36:27.740Z,21.20
2022-08-16T23:38:55.088Z,21.20
2022-08-16T23:41:22.460Z,21.20
2022-08-16T23:43:50.013Z,21.10
2022-08-16T23:46:19.423Z,21.10
2022-08-16T23:49:58.838Z,21.10
2022-08-16T23:51:34.788Z,21.10
2022-08-16T23:54:02.319Z,21.10
2022-08-16T23:56:30.099Z,21.10
2022-08-16T23:59:07.760Z,21.10
